sensor_id;sensor_type;location;lat;lon;timestamp;temperature;humidity
59067;DHT22;44854;50.838;4.438;2023-02-10T05:23:18;2.50;99.90
59067;DHT22;44854;50.838;4.438;2023-02-10T05:25:43;2.50;99.90
59067;DHT22;44854;50.838;4.438;2023-02-10T05:28:09;2.60;99.90
59067;DHT22;44854;50.838;4.438;2023-02-10T05:30:35;2.60;99.90
59067;DHT22;44854;50.838;4.438;2023-02-10T05:33:00;2.60;99.90
59067;DHT22;44854;50.838;4.438;2023-02-10T05:35:26;2.40;99.90
59067;DHT22;44854;50.838;4.438;2023-02-10T05:37:51;2.50;99.90
59067;DHT22;44854;50.838;4.438;2023-02-10T05:40:17;2.50;99.90
59067;DHT22;44854;50.838;4.438;2023-02-10T05:42:42;2.40;99.90
59067;DHT22;44854;50.838;4.438;2023-02-10T05:45:08;2.50;99.90
59067;DHT22;44854;50.838;4.438;2023-02-10T05:47:34;2.50;99.90
59067;DHT22;44854;50.838;4.438;2023-02-10T05:49:59;2.50;99.90
59067;DHT22;44854;50.838;4.438;2023-02-10T05:52:25;2.50;99.90
59067;DHT22;44854;50.838;4.438;2023-02-10T05:54:50;2.50;99.90
59067;DHT22;44854;50.838;4.438;2023-02-10T05:57:16;2.50;99.90
59067;DHT22;44854;50.838;4.438;2023-02-10T05:59:41;2.50;99.90
59067;DHT22;44854;50.838;4.438;2023-02-10T06:02:07;2.40;99.90
59067;DHT22;44854;50.838;4.438;2023-02-10T06:04:32;2.50;99.90
59067;DHT22;44854;50.838;4.438;2023-02-10T06:06:58;2.50;99.90
59067;DHT22;44854;50.838;4.438;2023-02-10T06:09:24;2.50;99.90
59067;DHT22;44854;50.838;4.438;2023-02-10T06:11:51;2.40;99.90
59067;DHT22;44854;50.838;4.438;2023-02-10T06:14:17;2.40;99.90
59067;DHT22;44854;50.838;4.438;2023-02-10T06:16:42;2.60;99.90
59067;DHT22;44854;50.838;4.438;2023-02-10T06:19:08;2.60;99.90
59067;DHT22;44854;50.838;4.438;2023-02-10T06:21:33;2.70;99.90
59067;DHT22;44854;50.838;4.438;2023-02-10T06:23:59;2.80;99.90
59067;DHT22;44854;50.838;4.438;2023-02-10T06:26:25;2.80;99.90
59067;DHT22;44854;50.838;4.438;2023-02-10T06:28:53;2.80;99.90
59067;DHT22;44854;50.838;4.438;2023-02-10T06:31:19;2.70;99.90
59067;DHT22;44854;50.838;4.438;2023-02-10T06:33:44;2.70;99.90
59067;DHT22;44854;50.838;4.438;2023-02-10T06:36:10;2.70;99.90
59067;DHT22;44854;50.838;4.438;2023-02-10T06:38:36;2.70;99.90
59067;DHT22;44854;50.838;4.438;2023-02-10T06:41:02;2.70;99.90
59067;DHT22;44854;50.838;4.438;2023-02-10T06:43:38;2.60;99.90
59067;DHT22;44854;50.838;4.438;2023-02-10T06:46:03;2.60;99.90
59067;DHT22;44854;50.838;4.438;2023-02-10T06:48:29;2.60;99.90
59067;DHT22;44854;50.838;4.438;2023-02-10T06:50:55;2.70;99.90
59067;DHT22;44854;50.838;4.438;2023-02-10T06:53:21;2.60;99.90
59067;DHT22;44854;50.838;4.438;2023-02-10T06:55:46;2.80;99.90
59067;DHT22;44854;50.838;4.438;2023-02-10T06:58:12;2.80;99.90
59067;DHT22;44854;50.838;4.438;2023-02-10T07:00:38;2.80;99.90
59067;DHT22;44854;50.838;4.438;2023-02-10T07:03:03;2.80;99.90
59067;DHT22;44854;50.838;4.438;2023-02-10T07:05:29;2.70;99.90
59067;DHT22;44854;50.838;4.438;2023-02-10T07:07:56;2.70;99.90
59067;DHT22;44854;50.838;4.438;2023-02-10T07:10:24;2.60;99.90
59067;DHT22;44854;50.838;4.438;2023-02-10T07:12:50;2.70;99.90
59067;DHT22;44854;50.838;4.438;2023-02-10T07:15:17;2.60;99.90
59067;DHT22;44854;50.838;4.438;2023-02-10T07:17:44;2.60;99.90
59067;DHT22;44854;50.838;4.438;2023-02-10T07:20:10;2.60;99.90
59067;DHT22;44854;50.838;4.438;2023-02-10T07:22:35;2.70;99.90
59067;DHT22;44854;50.838;4.438;2023-02-10T07:25:01;2.70;99.90
59067;DHT22;44854;50.838;4.438;2023-02-10T07:27:27;2.70;99.90
59067;DHT22;44854;50.838;4.438;2023-02-10T07:29:52;2.60;99.90
59067;DHT22;44854;50.838;4.438;2023-02-10T07:32:18;2.70;99.90
59067;DHT22;44854;50.838;4.438;2023-02-10T07:34:43;2.60;99.90
59067;DHT22;44854;50.838;4.438;2023-02-10T07:37:09;2.60;99.90
59067;DHT22;44854;50.838;4.438;2023-02-10T07:39:35;2.70;99.90
59067;DHT22;44854;50.838;4.438;2023-02-10T07:42:01;2.80;99.90
59067;DHT22;44854;50.838;4.438;2023-02-10T07:44:26;2.70;99.90
59067;DHT22;44854;50.838;4.438;2023-02-10T07:46:52;2.70;99.90
59067;DHT22;44854;50.838;4.438;2023-02-10T07:49:18;2.70;99.90
59067;DHT22;44854;50.838;4.438;2023-02-10T07:51:43;2.70;99.90
59067;DHT22;44854;50.838;4.438;2023-02-10T07:54:09;2.80;99.90
59067;DHT22;44854;50.838;4.438;2023-02-10T07:56:35;2.70;99.90
59067;DHT22;44854;50.838;4.438;2023-02-10T07:59:00;2.70;99.90
59067;DHT22;44854;50.838;4.438;2023-02-10T08:01:26;2.70;99.90
59067;DHT22;44854;50.838;4.438;2023-02-10T08:03:51;2.80;99.90
59067;DHT22;44854;50.838;4.438;2023-02-10T08:06:20;3.00;99.90
59067;DHT22;44854;50.838;4.438;2023-02-10T08:08:46;3.20;99.90
59067;DHT22;44854;50.838;4.438;2023-02-10T08:11:12;3.30;99.90
59067;DHT22;44854;50.838;4.438;2023-02-10T08:13:37;3.40;99.90
59067;DHT22;44854;50.838;4.438;2023-02-10T08:16:06;3.50;99.90
59067;DHT22;44854;50.838;4.438;2023-02-10T08:18:35;3.50;99.90
59067;DHT22;44854;50.838;4.438;2023-02-10T08:21:01;3.70;99.90
59067;DHT22;44854;50.838;4.438;2023-02-10T08:23:26;3.80;99.90
59067;DHT22;44854;50.838;4.438;2023-02-10T08:25:52;3.90;99.90
59067;DHT22;44854;50.838;4.438;2023-02-10T08:28:18;3.80;99.90
59067;DHT22;44854;50.838;4.438;2023-02-10T08:30:43;3.80;99.90
59067;DHT22;44854;50.838;4.438;2023-02-10T08:33:09;3.90;99.90
59067;DHT22;44854;50.838;4.438;2023-02-10T08:35:36;4.00;99.90
59067;DHT22;44854;50.838;4.438;2023-02-10T08:38:02;4.10;99.90
59067;DHT22;44854;50.838;4.438;2023-02-10T08:40:27;4.20;99.90
59067;DHT22;44854;50.838;4.438;2023-02-10T08:42:53;4.30;99.90
59067;DHT22;44854;50.838;4.438;2023-02-10T08:45:18;4.30;99.90
59067;DHT22;44854;50.838;4.438;2023-02-10T08:47:44;4.30;99.90
59067;DHT22;44854;50.838;4.438;2023-02-10T08:50:10;4.30;99.90
59067;DHT22;44854;50.838;4.438;2023-02-10T08:52:35;4.30;99.90
59067;DHT22;44854;50.838;4.438;2023-02-10T08:55:01;4.40;99.90
59067;DHT22;44854;50.838;4.438;2023-02-10T08:57:27;4.60;99.90
59067;DHT22;44854;50.838;4.438;2023-02-10T08:59:53;4.60;99.90
59067;DHT22;44854;50.838;4.438;2023-02-10T09:02:18;4.60;99.90
59067;DHT22;44854;50.838;4.438;2023-02-10T09:04:44;4.60;99.90
59067;DHT22;44854;50.838;4.438;2023-02-10T09:07:10;4.70;99.90
59067;DHT22;44854;50.838;4.438;2023-02-10T09:09:37;4.80;99.90
59067;DHT22;44854;50.838;4.438;2023-02-10T09:12:03;4.90;99.90
59067;DHT22;44854;50.838;4.438;2023-02-10T09:14:29;5.00;99.90
59067;DHT22;44854;50.838;4.438;2023-02-10T09:16:55;5.20;99.90
59067;DHT22;44854;50.838;4.438;2023-02-10T09:19:21;5.30;99.90
59067;DHT22;44854;50.838;4.438;2023-02-10T09:21:48;5.40;99.90
59067;DHT22;44854;50.838;4.438;2023-02-10T09:24:14;5.60;99.90
59067;DHT22;44854;50.838;4.438;2023-02-10T09:26:39;5.60;99.90
59067;DHT22;44854;50.838;4.438;2023-02-10T09:29:05;5.60;99.90
59067;DHT22;44854;50.838;4.438;2023-02-10T09:31:33;5.70;99.90
59067;DHT22;44854;50.838;4.438;2023-02-10T09:33:59;5.70;99.90
59067;DHT22;44854;50.838;4.438;2023-02-10T09:36:25;5.80;99.90
59067;DHT22;44854;50.838;4.438;2023-02-10T09:38:50;6.00;99.90
59067;DHT22;44854;50.838;4.438;2023-02-10T09:41:31;6.20;99.90
59067;DHT22;44854;50.838;4.438;2023-02-10T09:52:02;6.10;99.90
59067;DHT22;44854;50.838;4.438;2023-02-10T09:54:31;6.10;99.90
59067;DHT22;44854;50.838;4.438;2023-02-10T09:57:02;6.10;99.90
59067;DHT22;44854;50.838;4.438;2023-02-10T09:59:29;6.10;99.90
59067;DHT22;44854;50.838;4.438;2023-02-10T10:01:57;6.10;99.90
59067;DHT22;44854;50.838;4.438;2023-02-10T10:04:25;6.00;99.90
59067;DHT22;44854;50.838;4.438;2023-02-10T10:06:53;6.10;99.90
59067;DHT22;44854;50.838;4.438;2023-02-10T10:09:32;6.10;99.90
59067;DHT22;44854;50.838;4.438;2023-02-10T10:12:00;6.10;99.90
59067;DHT22;44854;50.838;4.438;2023-02-10T10:14:48;6.20;99.90
59067;DHT22;44854;50.838;4.438;2023-02-10T10:17:19;6.30;99.90
59067;DHT22;44854;50.838;4.438;2023-02-10T10:20:05;6.20;99.90
59067;DHT22;44854;50.838;4.438;2023-02-10T10:34:15;6.70;99.90
59067;DHT22;44854;50.838;4.438;2023-02-10T10:36:41;6.80;99.90
59067;DHT22;44854;50.838;4.438;2023-02-10T10:39:14;6.80;99.90
59067;DHT22;44854;50.838;4.438;2023-02-10T10:41:41;6.80;99.90
59067;DHT22;44854;50.838;4.438;2023-02-10T10:44:30;7.00;99.90
59067;DHT22;44854;50.838;4.438;2023-02-10T10:47:04;7.10;99.90
59067;DHT22;44854;50.838;4.438;2023-02-10T10:49:36;7.10;99.90
59067;DHT22;44854;50.838;4.438;2023-02-10T10:54:49;7.10;99.90
59067;DHT22;44854;50.838;4.438;2023-02-10T10:57:14;7.10;99.90
59067;DHT22;44854;50.838;4.438;2023-02-10T10:59:45;7.20;99.90
59067;DHT22;44854;50.838;4.438;2023-02-10T11:02:14;7.20;99.90
59067;DHT22;44854;50.838;4.438;2023-02-10T11:04:40;7.20;99.90
59067;DHT22;44854;50.838;4.438;2023-02-10T11:07:11;7.00;99.90
59067;DHT22;44854;50.838;4.438;2023-02-10T11:09:40;6.90;99.90
59067;DHT22;44854;50.838;4.438;2023-02-10T11:12:18;6.90;99.90
59067;DHT22;44854;50.838;4.438;2023-02-10T11:14:46;6.80;99.90
59067;DHT22;44854;50.838;4.438;2023-02-10T11:22:36;6.70;99.90
59067;DHT22;44854;50.838;4.438;2023-02-10T11:25:03;6.80;99.90
59067;DHT22;44854;50.838;4.438;2023-02-10T11:27:49;6.70;99.90
59067;DHT22;44854;50.838;4.438;2023-02-10T11:30:33;6.60;99.90
59067;DHT22;44854;50.838;4.438;2023-02-10T11:33:02;6.70;99.90
59067;DHT22;44854;50.838;4.438;2023-02-10T11:35:28;6.60;99.90
59067;DHT22;44854;50.838;4.438;2023-02-10T11:38:03;6.80;99.90
59067;DHT22;44854;50.838;4.438;2023-02-10T11:40:47;6.80;99.90
59067;DHT22;44854;50.838;4.438;2023-02-10T11:43:14;7.00;99.90
59067;DHT22;44854;50.838;4.438;2023-02-10T11:45:50;6.90;99.90
59067;DHT22;44854;50.838;4.438;2023-02-10T11:48:17;7.10;99.90
59067;DHT22;44854;50.838;4.438;2023-02-10T11:50:43;7.10;99.90
59067;DHT22;44854;50.838;4.438;2023-02-10T11:53:21;7.20;99.90
59067;DHT22;44854;50.838;4.438;2023-02-10T11:58:52;7.30;99.90
59067;DHT22;44854;50.838;4.438;2023-02-10T12:09:03;7.50;99.90
59067;DHT22;44854;50.838;4.438;2023-02-10T12:11:52;7.60;99.90
59067;DHT22;44854;50.838;4.438;2023-02-10T12:21:47;8.00;99.90
59067;DHT22;44854;50.838;4.438;2023-02-10T12:39:37;8.20;99.90
59067;DHT22;44854;50.838;4.438;2023-02-10T12:52:57;8.20;99.90
59067;DHT22;44854;50.838;4.438;2023-02-10T12:55:34;8.10;99.90
59067;DHT22;44854;50.838;4.438;2023-02-10T12:58:04;8.20;99.90
59067;DHT22;44854;50.838;4.438;2023-02-10T13:00:43;8.10;99.90
59067;DHT22;44854;50.838;4.438;2023-02-10T13:05:43;8.20;99.90
59067;DHT22;44854;50.838;4.438;2023-02-10T13:08:14;8.20;99.90
59067;DHT22;44854;50.838;4.438;2023-02-10T13:10:51;8.10;99.90
59067;DHT22;44854;50.838;4.438;2023-02-10T13:13:24;8.10;99.90
59067;DHT22;44854;50.838;4.438;2023-02-10T13:16:09;8.00;99.90
59067;DHT22;44854;50.838;4.438;2023-02-10T13:18:42;8.10;99.90
59067;DHT22;44854;50.838;4.438;2023-02-10T13:21:14;7.90;99.90
59067;DHT22;44854;50.838;4.438;2023-02-10T13:34:35;7.80;99.90
59067;DHT22;44854;50.838;4.438;2023-02-10T13:37:26;7.70;99.90
59067;DHT22;44854;50.838;4.438;2023-02-10T13:39:54;7.80;99.90
59067;DHT22;44854;50.838;4.438;2023-02-10T13:42:27;7.80;99.90
59067;DHT22;44854;50.838;4.438;2023-02-10T13:44:57;7.70;99.90
59067;DHT22;44854;50.838;4.438;2023-02-10T13:52:47;7.70;99.90
59067;DHT22;44854;50.838;4.438;2023-02-10T13:57:49;7.70;99.90
59067;DHT22;44854;50.838;4.438;2023-02-10T14:00:19;7.70;99.90
59067;DHT22;44854;50.838;4.438;2023-02-10T14:02:57;7.70;99.90
59067;DHT22;44854;50.838;4.438;2023-02-10T14:05:34;7.90;99.90
59067;DHT22;44854;50.838;4.438;2023-02-10T14:08:11;7.90;99.90
59067;DHT22;44854;50.838;4.438;2023-02-10T14:10:36;7.80;99.90
59067;DHT22;44854;50.838;4.438;2023-02-10T14:13:04;7.90;99.90
59067;DHT22;44854;50.838;4.438;2023-02-10T14:15:34;7.90;99.90
59067;DHT22;44854;50.838;4.438;2023-02-10T14:21:10;8.00;99.90
59067;DHT22;44854;50.838;4.438;2023-02-10T14:23:37;8.10;99.90
59067;DHT22;44854;50.838;4.438;2023-02-10T14:26:12;8.10;99.90
59067;DHT22;44854;50.838;4.438;2023-02-10T14:28:39;8.20;99.90
59067;DHT22;44854;50.838;4.438;2023-02-10T14:31:11;8.30;99.90
59067;DHT22;44854;50.838;4.438;2023-02-10T14:33:37;8.40;99.90
59067;DHT22;44854;50.838;4.438;2023-02-10T14:36:04;8.50;99.90
59067;DHT22;44854;50.838;4.438;2023-02-10T14:38:32;8.60;99.90
59067;DHT22;44854;50.838;4.438;2023-02-10T14:41:00;8.60;99.90
59067;DHT22;44854;50.838;4.438;2023-02-10T14:43:27;8.70;99.90
59067;DHT22;44854;50.838;4.438;2023-02-10T14:45:53;8.50;99.90
59067;DHT22;44854;50.838;4.438;2023-02-10T14:48:20;8.50;99.90
59067;DHT22;44854;50.838;4.438;2023-02-10T14:51:00;8.50;99.90
59067;DHT22;44854;50.838;4.438;2023-02-10T14:53:26;8.50;99.90
59067;DHT22;44854;50.838;4.438;2023-02-10T14:55:53;8.60;99.90
59067;DHT22;44854;50.838;4.438;2023-02-10T14:58:19;8.40;99.90
59067;DHT22;44854;50.838;4.438;2023-02-10T15:01:01;8.30;99.90
59067;DHT22;44854;50.838;4.438;2023-02-10T15:03:27;8.40;99.90
59067;DHT22;44854;50.838;4.438;2023-02-10T15:05:54;8.50;99.90
59067;DHT22;44854;50.838;4.438;2023-02-10T15:08:30;8.60;99.90
59067;DHT22;44854;50.838;4.438;2023-02-10T15:10:56;8.70;99.90
59067;DHT22;44854;50.838;4.438;2023-02-10T15:13:24;8.60;99.90
59067;DHT22;44854;50.838;4.438;2023-02-10T15:15:50;8.60;99.90
59067;DHT22;44854;50.838;4.438;2023-02-10T15:18:19;8.60;99.90
59067;DHT22;44854;50.838;4.438;2023-02-10T15:20:54;8.60;99.90
59067;DHT22;44854;50.838;4.438;2023-02-10T15:23:20;8.50;99.90
59067;DHT22;44854;50.838;4.438;2023-02-10T15:25:45;8.50;99.90
59067;DHT22;44854;50.838;4.438;2023-02-10T15:33:19;8.40;99.90
59067;DHT22;44854;50.838;4.438;2023-02-10T15:35:52;8.40;99.90
59067;DHT22;44854;50.838;4.438;2023-02-10T15:38:17;8.30;99.90
59067;DHT22;44854;50.838;4.438;2023-02-10T15:40:50;8.30;99.90
59067;DHT22;44854;50.838;4.438;2023-02-10T15:43:26;8.30;99.90
59067;DHT22;44854;50.838;4.438;2023-02-10T15:46:03;8.40;99.90
59067;DHT22;44854;50.838;4.438;2023-02-10T15:48:29;8.40;99.90
59067;DHT22;44854;50.838;4.438;2023-02-10T15:50:54;8.40;99.90
59067;DHT22;44854;50.838;4.438;2023-02-10T15:53:20;8.40;99.90
59067;DHT22;44854;50.838;4.438;2023-02-10T15:55:46;8.50;99.90
59067;DHT22;44854;50.838;4.438;2023-02-10T15:58:13;8.50;99.90
59067;DHT22;44854;50.838;4.438;2023-02-10T16:00:39;8.50;99.90
59067;DHT22;44854;50.838;4.438;2023-02-10T16:03:05;8.40;99.90
59067;DHT22;44854;50.838;4.438;2023-02-10T16:05:31;8.50;99.90
59067;DHT22;44854;50.838;4.438;2023-02-10T16:08:02;8.40;99.90
59067;DHT22;44854;50.838;4.438;2023-02-10T16:10:29;8.40;99.90
59067;DHT22;44854;50.838;4.438;2023-02-10T16:12:55;8.30;99.90
59067;DHT22;44854;50.838;4.438;2023-02-10T16:15:21;8.30;99.90
59067;DHT22;44854;50.838;4.438;2023-02-10T16:17:49;8.40;99.90
59067;DHT22;44854;50.838;4.438;2023-02-10T16:20:22;8.40;99.90
59067;DHT22;44854;50.838;4.438;2023-02-10T16:22:48;8.40;99.90
59067;DHT22;44854;50.838;4.438;2023-02-10T16:25:15;8.30;99.90
59067;DHT22;44854;50.838;4.438;2023-02-10T16:27:41;8.40;99.90
59067;DHT22;44854;50.838;4.438;2023-02-10T16:30:07;8.40;99.90
59067;DHT22;44854;50.838;4.438;2023-02-10T16:32:32;8.40;99.90
59067;DHT22;44854;50.838;4.438;2023-02-10T16:34:58;8.30;99.90
59067;DHT22;44854;50.838;4.438;2023-02-10T16:37:23;8.20;99.90
59067;DHT22;44854;50.838;4.438;2023-02-10T16:39:49;8.20;99.90
59067;DHT22;44854;50.838;4.438;2023-02-10T16:42:15;8.30;99.90
59067;DHT22;44854;50.838;4.438;2023-02-10T16:44:41;8.30;99.90
59067;DHT22;44854;50.838;4.438;2023-02-10T16:47:06;8.40;99.90
59067;DHT22;44854;50.838;4.438;2023-02-10T16:49:32;8.20;99.90
59067;DHT22;44854;50.838;4.438;2023-02-10T16:51:57;8.10;99.90
59067;DHT22;44854;50.838;4.438;2023-02-10T16:54:23;8.10;99.90
59067;DHT22;44854;50.838;4.438;2023-02-10T16:56:49;8.00;99.90
59067;DHT22;44854;50.838;4.438;2023-02-10T16:59:16;8.10;99.90
59067;DHT22;44854;50.838;4.438;2023-02-10T17:01:42;8.10;99.90
59067;DHT22;44854;50.838;4.438;2023-02-10T17:04:08;8.00;99.90
59067;DHT22;44854;50.838;4.438;2023-02-10T17:06:33;8.10;99.90
59067;DHT22;44854;50.838;4.438;2023-02-10T17:09:00;8.10;99.90
59067;DHT22;44854;50.838;4.438;2023-02-10T17:11:26;8.10;99.90
59067;DHT22;44854;50.838;4.438;2023-02-10T17:13:52;8.00;99.90
59067;DHT22;44854;50.838;4.438;2023-02-10T17:16:27;8.00;99.90
59067;DHT22;44854;50.838;4.438;2023-02-10T17:18:54;8.00;99.90
59067;DHT22;44854;50.838;4.438;2023-02-10T17:21:19;8.00;99.90
59067;DHT22;44854;50.838;4.438;2023-02-10T17:23:45;8.00;99.90
59067;DHT22;44854;50.838;4.438;2023-02-10T17:26:10;8.00;99.90
59067;DHT22;44854;50.838;4.438;2023-02-10T17:28:36;8.10;99.90
59067;DHT22;44854;50.838;4.438;2023-02-10T17:31:02;8.00;99.90
59067;DHT22;44854;50.838;4.438;2023-02-10T17:33:28;7.90;99.90
59067;DHT22;44854;50.838;4.438;2023-02-10T17:35:54;7.90;99.90
59067;DHT22;44854;50.838;4.438;2023-02-10T17:38:19;7.90;99.90
59067;DHT22;44854;50.838;4.438;2023-02-10T17:41:03;7.90;99.90
59067;DHT22;44854;50.838;4.438;2023-02-10T17:43:31;7.90;99.90
59067;DHT22;44854;50.838;4.438;2023-02-10T17:45:57;7.90;99.90
59067;DHT22;44854;50.838;4.438;2023-02-10T17:48:22;7.90;99.90
59067;DHT22;44854;50.838;4.438;2023-02-10T17:50:48;7.80;99.90
59067;DHT22;44854;50.838;4.438;2023-02-10T17:53:14;7.70;99.90
59067;DHT22;44854;50.838;4.438;2023-02-10T17:55:40;7.70;99.90
59067;DHT22;44854;50.838;4.438;2023-02-10T17:58:06;7.80;99.90
59067;DHT22;44854;50.838;4.438;2023-02-10T18:00:31;7.70;99.90
59067;DHT22;44854;50.838;4.438;2023-02-10T18:02:57;7.70;99.90
59067;DHT22;44854;50.838;4.438;2023-02-10T18:05:22;7.70;99.90
59067;DHT22;44854;50.838;4.438;2023-02-10T18:07:49;7.70;99.90
59067;DHT22;44854;50.838;4.438;2023-02-10T18:10:14;7.70;99.90
59067;DHT22;44854;50.838;4.438;2023-02-10T18:12:40;7.70;99.90
59067;DHT22;44854;50.838;4.438;2023-02-10T18:15:06;7.60;99.90
59067;DHT22;44854;50.838;4.438;2023-02-10T18:17:31;7.60;99.90
59067;DHT22;44854;50.838;4.438;2023-02-10T18:19:57;7.70;99.90
59067;DHT22;44854;50.838;4.438;2023-02-10T18:22:23;7.70;99.90
59067;DHT22;44854;50.838;4.438;2023-02-10T18:24:48;7.80;99.90
59067;DHT22;44854;50.838;4.438;2023-02-10T18:27:14;7.80;99.90
59067;DHT22;44854;50.838;4.438;2023-02-10T18:29:39;7.80;99.90
59067;DHT22;44854;50.838;4.438;2023-02-10T18:32:07;7.80;99.90
59067;DHT22;44854;50.838;4.438;2023-02-10T18:34:32;7.80;99.90
59067;DHT22;44854;50.838;4.438;2023-02-10T18:36:58;7.90;99.90
59067;DHT22;44854;50.838;4.438;2023-02-10T18:39:23;7.90;99.90
59067;DHT22;44854;50.838;4.438;2023-02-10T18:41:49;7.90;99.90
59067;DHT22;44854;50.838;4.438;2023-02-10T18:44:15;7.80;99.90
59067;DHT22;44854;50.838;4.438;2023-02-10T18:46:40;7.80;99.90
59067;DHT22;44854;50.838;4.438;2023-02-10T18:49:06;7.90;99.90
59067;DHT22;44854;50.838;4.438;2023-02-10T18:51:31;7.90;99.90
59067;DHT22;44854;50.838;4.438;2023-02-10T18:53:58;7.80;99.90
59067;DHT22;44854;50.838;4.438;2023-02-10T18:56:23;7.90;99.90
59067;DHT22;44854;50.838;4.438;2023-02-10T18:58:49;7.90;99.90
59067;DHT22;44854;50.838;4.438;2023-02-10T19:01:15;7.90;99.90
59067;DHT22;44854;50.838;4.438;2023-02-10T19:03:41;8.00;99.90
59067;DHT22;44854;50.838;4.438;2023-02-10T19:06:07;8.00;99.90
59067;DHT22;44854;50.838;4.438;2023-02-10T19:08:33;8.10;99.90
59067;DHT22;44854;50.838;4.438;2023-02-10T19:11:02;8.10;99.90
59067;DHT22;44854;50.838;4.438;2023-02-10T19:13:28;8.10;99.90
59067;DHT22;44854;50.838;4.438;2023-02-10T19:15:54;8.10;99.90
59067;DHT22;44854;50.838;4.438;2023-02-10T19:18:19;8.10;99.90
59067;DHT22;44854;50.838;4.438;2023-02-10T19:20:45;8.20;99.90
59067;DHT22;44854;50.838;4.438;2023-02-10T19:23:10;8.20;99.90
59067;DHT22;44854;50.838;4.438;2023-02-10T19:25:36;8.10;99.90
59067;DHT22;44854;50.838;4.438;2023-02-10T19:28:02;8.10;99.90
59067;DHT22;44854;50.838;4.438;2023-02-10T19:30:27;8.10;99.90
59067;DHT22;44854;50.838;4.438;2023-02-10T19:32:53;8.10;99.90
59067;DHT22;44854;50.838;4.438;2023-02-10T19:35:19;8.20;99.90
59067;DHT22;44854;50.838;4.438;2023-02-10T19:37:44;8.20;99.90
59067;DHT22;44854;50.838;4.438;2023-02-10T19:40:10;8.20;99.90
59067;DHT22;44854;50.838;4.438;2023-02-10T19:42:36;8.20;99.90
59067;DHT22;44854;50.838;4.438;2023-02-10T19:45:01;8.10;99.90
59067;DHT22;44854;50.838;4.438;2023-02-10T19:47:27;8.00;99.90
59067;DHT22;44854;50.838;4.438;2023-02-10T19:49:53;8.00;99.90
59067;DHT22;44854;50.838;4.438;2023-02-10T19:52:18;8.00;99.90
59067;DHT22;44854;50.838;4.438;2023-02-10T19:54:44;8.00;99.90
59067;DHT22;44854;50.838;4.438;2023-02-10T19:57:10;8.10;99.90
59067;DHT22;44854;50.838;4.438;2023-02-10T19:59:35;8.00;99.90
59067;DHT22;44854;50.838;4.438;2023-02-10T20:02:01;8.00;99.90
59067;DHT22;44854;50.838;4.438;2023-02-10T20:04:26;8.10;99.90
59067;DHT22;44854;50.838;4.438;2023-02-10T20:06:52;8.10;99.90
59067;DHT22;44854;50.838;4.438;2023-02-10T20:09:17;8.20;99.90
59067;DHT22;44854;50.838;4.438;2023-02-10T20:11:43;8.20;99.90
59067;DHT22;44854;50.838;4.438;2023-02-10T20:14:09;8.20;99.90
59067;DHT22;44854;50.838;4.438;2023-02-10T20:16:36;8.10;99.90
59067;DHT22;44854;50.838;4.438;2023-02-10T20:19:01;8.10;99.90
59067;DHT22;44854;50.838;4.438;2023-02-10T20:21:27;8.10;99.90
59067;DHT22;44854;50.838;4.438;2023-02-10T20:23:53;8.20;99.90
59067;DHT22;44854;50.838;4.438;2023-02-10T20:26:18;8.20;99.90
59067;DHT22;44854;50.838;4.438;2023-02-10T20:28:44;8.10;99.90
59067;DHT22;44854;50.838;4.438;2023-02-10T20:31:09;8.10;99.90
59067;DHT22;44854;50.838;4.438;2023-02-10T20:33:40;8.10;99.90
59067;DHT22;44854;50.838;4.438;2023-02-10T20:36:05;8.10;99.90
59067;DHT22;44854;50.838;4.438;2023-02-10T20:38:33;8.10;99.90
59067;DHT22;44854;50.838;4.438;2023-02-10T20:41:02;8.20;99.90
59067;DHT22;44854;50.838;4.438;2023-02-10T20:43:34;8.10;99.90
59067;DHT22;44854;50.838;4.438;2023-02-10T20:46:00;8.20;99.90
59067;DHT22;44854;50.838;4.438;2023-02-10T20:48:25;8.20;99.90
59067;DHT22;44854;50.838;4.438;2023-02-10T20:50:51;8.20;99.90
59067;DHT22;44854;50.838;4.438;2023-02-10T20:53:17;8.20;99.90
59067;DHT22;44854;50.838;4.438;2023-02-10T20:55:44;8.10;99.90
59067;DHT22;44854;50.838;4.438;2023-02-10T20:58:10;8.00;99.90
59067;DHT22;44854;50.838;4.438;2023-02-10T21:00:36;8.10;99.90
59067;DHT22;44854;50.838;4.438;2023-02-10T21:03:01;8.10;99.90
59067;DHT22;44854;50.838;4.438;2023-02-10T21:05:27;8.10;99.90
59067;DHT22;44854;50.838;4.438;2023-02-10T21:07:53;8.10;99.90
59067;DHT22;44854;50.838;4.438;2023-02-10T21:10:19;8.10;99.90
59067;DHT22;44854;50.838;4.438;2023-02-10T21:12:44;8.10;99.90
59067;DHT22;44854;50.838;4.438;2023-02-10T21:15:11;8.00;99.90
59067;DHT22;44854;50.838;4.438;2023-02-10T21:17:37;8.00;99.90
59067;DHT22;44854;50.838;4.438;2023-02-10T21:20:02;8.00;99.90
59067;DHT22;44854;50.838;4.438;2023-02-10T21:22:28;8.10;99.90
59067;DHT22;44854;50.838;4.438;2023-02-10T21:24:54;8.00;99.90
59067;DHT22;44854;50.838;4.438;2023-02-10T21:27:19;8.10;99.90
59067;DHT22;44854;50.838;4.438;2023-02-10T21:29:45;8.00;99.90
59067;DHT22;44854;50.838;4.438;2023-02-10T21:32:10;7.90;99.90
59067;DHT22;44854;50.838;4.438;2023-02-10T21:34:36;8.00;99.90
59067;DHT22;44854;50.838;4.438;2023-02-10T21:37:05;7.90;99.90
59067;DHT22;44854;50.838;4.438;2023-02-10T21:39:30;7.90;99.90
59067;DHT22;44854;50.838;4.438;2023-02-10T21:41:56;7.90;99.90
59067;DHT22;44854;50.838;4.438;2023-02-10T21:44:25;8.00;99.90
59067;DHT22;44854;50.838;4.438;2023-02-10T21:46:53;7.90;99.90
59067;DHT22;44854;50.838;4.438;2023-02-10T21:49:20;8.10;99.90
59067;DHT22;44854;50.838;4.438;2023-02-10T21:51:45;7.90;99.90
59067;DHT22;44854;50.838;4.438;2023-02-10T21:54:11;7.90;99.90
59067;DHT22;44854;50.838;4.438;2023-02-10T21:56:37;7.90;99.90
59067;DHT22;44854;50.838;4.438;2023-02-10T21:59:02;8.00;99.90
59067;DHT22;44854;50.838;4.438;2023-02-10T22:01:30;8.00;99.90
59067;DHT22;44854;50.838;4.438;2023-02-10T22:03:56;8.00;99.90
59067;DHT22;44854;50.838;4.438;2023-02-10T22:06:22;7.90;99.90
59067;DHT22;44854;50.838;4.438;2023-02-10T22:08:47;7.90;99.90
59067;DHT22;44854;50.838;4.438;2023-02-10T22:11:14;7.90;99.90
59067;DHT22;44854;50.838;4.438;2023-02-10T22:13:40;7.90;99.90
59067;DHT22;44854;50.838;4.438;2023-02-10T22:16:07;8.00;99.90
59067;DHT22;44854;50.838;4.438;2023-02-10T22:18:33;8.00;99.90
59067;DHT22;44854;50.838;4.438;2023-02-10T22:21:05;7.90;99.90
59067;DHT22;44854;50.838;4.438;2023-02-10T22:23:32;7.90;99.90
59067;DHT22;44854;50.838;4.438;2023-02-10T22:25:57;7.80;99.90
59067;DHT22;44854;50.838;4.438;2023-02-10T22:28:23;7.90;99.90
59067;DHT22;44854;50.838;4.438;2023-02-10T22:30:48;7.80;99.90
59067;DHT22;44854;50.838;4.438;2023-02-10T22:33:14;7.80;99.90
59067;DHT22;44854;50.838;4.438;2023-02-10T22:35:39;7.80;99.90
59067;DHT22;44854;50.838;4.438;2023-02-10T22:38:05;7.70;99.90
59067;DHT22;44854;50.838;4.438;2023-02-10T22:40:31;7.60;99.90
59067;DHT22;44854;50.838;4.438;2023-02-10T22:42:57;7.80;99.90
59067;DHT22;44854;50.838;4.438;2023-02-10T22:45:22;7.80;99.90
59067;DHT22;44854;50.838;4.438;2023-02-10T22:47:50;7.70;99.90
59067;DHT22;44854;50.838;4.438;2023-02-10T22:50:16;7.80;99.90
